METAR Data
IDs: Format: Raw Decoded Include TAF

Data at: 0621 UTC 24 Jan 2019

METAR for:K6B9 (Skaneateles Arpt, NY, US)
Text:K6B9 240615Z AUTO 18007G16KT 140V230 10SM OVC075 07/05 A2963 RMK AO2
Temperature: 7.0°C ( 45°F)
Dewpoint: 5.0°C ( 41°F) [RH = 87%]
Pressure (altimeter):29.63 inches Hg (1003.5 mb)
Winds:from the S (180 degrees) at 8 MPH (7 knots; 3.6 m/s) gusting to 18 MPH (16 knots; 8.2 m/s)
Visibility:10 or more sm (16+ km)
Ceiling:7500 feet AGL
Clouds: overcast cloud deck at 7500 feet AGL
QC Flag:automated observation with no human augmentation
Text:K6B9 240555Z AUTO 19009G19KT 130V230 10SM SCT055 BKN080 OVC100 07/05 A2964 RMK AO2 P0001
Temperature: 7.0°C ( 45°F)
Dewpoint: 5.0°C ( 41°F) [RH = 87%]
Pressure (altimeter):29.64 inches Hg (1003.8 mb)
Winds:from the S (190 degrees) at 10 MPH (9 knots; 4.6 m/s) gusting to 22 MPH (19 knots; 9.8 m/s)
Visibility:10 or more sm (16+ km)
Ceiling:8000 feet AGL
Clouds: scattered clouds at 5500 feet AGL, broken clouds at 8000 feet AGL, overcast cloud deck at 10000 feet AGL
QC Flag:automated observation with no human augmentation
Text:K6B9 240535Z AUTO 19011G17KT 150V210 BKN055 OVC065 07/05 A2965 RMK AO2
Temperature: 7.0°C ( 45°F)
Dewpoint: 5.0°C ( 41°F) [RH = 87%]
Pressure (altimeter):29.65 inches Hg (1004.1 mb)
Winds:from the S (190 degrees) at 13 MPH (11 knots; 5.7 m/s) gusting to 20 MPH (17 knots; 8.7 m/s)
Ceiling:5500 feet AGL
Clouds: broken clouds at 5500 feet AGL, overcast cloud deck at 6500 feet AGL
QC Flag:automated observation with no human augmentation
Text:K6B9 240515Z AUTO 19011G21KT 150V210 10SM BKN060 OVC075 07/05 A2966 RMK AO2
Temperature: 7.0°C ( 45°F)
Dewpoint: 5.0°C ( 41°F) [RH = 87%]
Pressure (altimeter):29.66 inches Hg (1004.5 mb)
Winds:from the S (190 degrees) at 13 MPH (11 knots; 5.7 m/s) gusting to 24 MPH (21 knots; 10.8 m/s)
Visibility:10 or more sm (16+ km)
Ceiling:6000 feet AGL
Clouds: broken clouds at 6000 feet AGL, overcast cloud deck at 7500 feet AGL
QC Flag:automated observation with no human augmentation
Text:K6B9 240455Z AUTO 18009G19KT 150V210 10SM FEW050 OVC065 07/05 A2967 RMK AO2 P0003
Temperature: 7.0°C ( 45°F)
Dewpoint: 5.0°C ( 41°F) [RH = 87%]
Pressure (altimeter):29.67 inches Hg (1004.8 mb)
Winds:from the S (180 degrees) at 10 MPH (9 knots; 4.6 m/s) gusting to 22 MPH (19 knots; 9.8 m/s)
Visibility:10 or more sm (16+ km)
Ceiling:6500 feet AGL
Clouds: few clouds at 5000 feet AGL, overcast cloud deck at 6500 feet AGL
QC Flag:automated observation with no human augmentation
Text:K6B9 240435Z AUTO 19012G20KT 150V210 7SM -RA FEW033 BKN055 OVC065 06/05 A2968 RMK AO2
Temperature: 6.0°C ( 43°F)
Dewpoint: 5.0°C ( 41°F) [RH = 93%]
Pressure (altimeter):29.68 inches Hg (1005.2 mb)
Winds:from the S (190 degrees) at 14 MPH (12 knots; 6.2 m/s) gusting to 23 MPH (20 knots; 10.3 m/s)
Visibility: 7 sm ( 11 km)
Ceiling:5500 feet AGL
Clouds: few clouds at 3300 feet AGL, broken clouds at 5500 feet AGL, overcast cloud deck at 6500 feet AGL
Weather:-RA (light rain)
QC Flag:automated observation with no human augmentation
Text:K6B9 240415Z AUTO 18011G18KT 150V220 7SM -RA BKN055 OVC060 06/05 A2969 RMK AO2
Temperature: 6.0°C ( 43°F)
Dewpoint: 5.0°C ( 41°F) [RH = 93%]
Pressure (altimeter):29.69 inches Hg (1005.5 mb)
Winds:from the S (180 degrees) at 13 MPH (11 knots; 5.7 m/s) gusting to 21 MPH (18 knots; 9.3 m/s)
Visibility: 7 sm ( 11 km)
Ceiling:5500 feet AGL
Clouds: broken clouds at 5500 feet AGL, overcast cloud deck at 6000 feet AGL
Weather:-RA (light rain)
QC Flag:automated observation with no human augmentation
Text:K6B9 240355Z AUTO 19010G22KT 160V220 7SM -RA FEW050 OVC065 06/04 A2969 RMK AO2 P0001
Temperature: 6.0°C ( 43°F)
Dewpoint: 4.0°C ( 39°F) [RH = 87%]
Pressure (altimeter):29.69 inches Hg (1005.5 mb)
Winds:from the S (190 degrees) at 12 MPH (10 knots; 5.1 m/s) gusting to 25 MPH (22 knots; 11.3 m/s)
Visibility: 7 sm ( 11 km)
Ceiling:6500 feet AGL
Clouds: few clouds at 5000 feet AGL, overcast cloud deck at 6500 feet AGL
Weather:-RA (light rain)
QC Flag:automated observation with no human augmentation
Text:K6B9 240335Z AUTO 20008G17KT 160V220 10SM -UP FEW050 BKN065 OVC075 06/04 A2969 RMK AO2
Temperature: 6.0°C ( 43°F)
Dewpoint: 4.0°C ( 39°F) [RH = 87%]
Pressure (altimeter):29.69 inches Hg (1005.5 mb)
Winds:from the SSW (200 degrees) at 9 MPH (8 knots; 4.1 m/s) gusting to 20 MPH (17 knots; 8.7 m/s)
Visibility:10 or more sm (16+ km)
Ceiling:6500 feet AGL
Clouds: few clouds at 5000 feet AGL, broken clouds at 6500 feet AGL, overcast cloud deck at 7500 feet AGL
Weather:UP (unknown precipitation)
QC Flag:automated observation with no human augmentation
Text:K6B9 240315Z AUTO 19008G17KT 150V230 10SM OVC075 06/04 A2970 RMK AO2
Temperature: 6.0°C ( 43°F)
Dewpoint: 4.0°C ( 39°F) [RH = 87%]
Pressure (altimeter):29.70 inches Hg (1005.8 mb)
Winds:from the S (190 degrees) at 9 MPH (8 knots; 4.1 m/s) gusting to 20 MPH (17 knots; 8.7 m/s)
Visibility:10 or more sm (16+ km)
Ceiling:7500 feet AGL
Clouds: overcast cloud deck at 7500 feet AGL
QC Flag:automated observation with no human augmentation
Text:K6B9 240255Z AUTO 19012G23KT 130V230 10SM BKN070 OVC085 06/04 A2970 RMK AO2
Temperature: 6.0°C ( 43°F)
Dewpoint: 4.0°C ( 39°F) [RH = 87%]
Pressure (altimeter):29.70 inches Hg (1005.8 mb)
Winds:from the S (190 degrees) at 14 MPH (12 knots; 6.2 m/s) gusting to 26 MPH (23 knots; 11.8 m/s)
Visibility:10 or more sm (16+ km)
Ceiling:7000 feet AGL
Clouds: broken clouds at 7000 feet AGL, overcast cloud deck at 8500 feet AGL
QC Flag:automated observation with no human augmentation
Text:K6B9 240235Z AUTO 19015G23KT 150V230 10SM SCT045 BKN065 OVC075 06/04 A2970 RMK AO2
Temperature: 6.0°C ( 43°F)
Dewpoint: 4.0°C ( 39°F) [RH = 87%]
Pressure (altimeter):29.70 inches Hg (1005.8 mb)
Winds:from the S (190 degrees) at 17 MPH (15 knots; 7.7 m/s) gusting to 26 MPH (23 knots; 11.8 m/s)
Visibility:10 or more sm (16+ km)
Ceiling:6500 feet AGL
Clouds: scattered clouds at 4500 feet AGL, broken clouds at 6500 feet AGL, overcast cloud deck at 7500 feet AGL
QC Flag:automated observation with no human augmentation
Text:K6B9 240215Z AUTO 19012G19KT 150V220 10SM OVC046 06/04 A2972 RMK AO2
Temperature: 6.0°C ( 43°F)
Dewpoint: 4.0°C ( 39°F) [RH = 87%]
Pressure (altimeter):29.72 inches Hg (1006.5 mb)
Winds:from the S (190 degrees) at 14 MPH (12 knots; 6.2 m/s) gusting to 22 MPH (19 knots; 9.8 m/s)
Visibility:10 or more sm (16+ km)
Ceiling:4600 feet AGL
Clouds: overcast cloud deck at 4600 feet AGL
QC Flag:automated observation with no human augmentation
Text:K6B9 240155Z AUTO 18010G16KT 150V230 10SM -UP BKN047 OVC055 06/04 A2972 RMK AO2
Temperature: 6.0°C ( 43°F)
Dewpoint: 4.0°C ( 39°F) [RH = 87%]
Pressure (altimeter):29.72 inches Hg (1006.5 mb)
Winds:from the S (180 degrees) at 12 MPH (10 knots; 5.1 m/s) gusting to 18 MPH (16 knots; 8.2 m/s)
Visibility:10 or more sm (16+ km)
Ceiling:4700 feet AGL
Clouds: broken clouds at 4700 feet AGL, overcast cloud deck at 5500 feet AGL
Weather:UP (unknown precipitation)
QC Flag:automated observation with no human augmentation
Text:K6B9 240135Z AUTO 18013G23KT 140V230 10SM -UP SCT046 OVC055 06/03 A2972 RMK AO2
Temperature: 6.0°C ( 43°F)
Dewpoint: 3.0°C ( 37°F) [RH = 81%]
Pressure (altimeter):29.72 inches Hg (1006.5 mb)
Winds:from the S (180 degrees) at 15 MPH (13 knots; 6.7 m/s) gusting to 26 MPH (23 knots; 11.8 m/s)
Visibility:10 or more sm (16+ km)
Ceiling:5500 feet AGL
Clouds: scattered clouds at 4600 feet AGL, overcast cloud deck at 5500 feet AGL
Weather:UP (unknown precipitation)
QC Flag:automated observation with no human augmentation
Text:K6B9 240115Z AUTO 18013G21KT 150V210 10SM FEW044 OVC055 06/03 A2972 RMK AO2
Temperature: 6.0°C ( 43°F)
Dewpoint: 3.0°C ( 37°F) [RH = 81%]
Pressure (altimeter):29.72 inches Hg (1006.5 mb)
Winds:from the S (180 degrees) at 15 MPH (13 knots; 6.7 m/s) gusting to 24 MPH (21 knots; 10.8 m/s)
Visibility:10 or more sm (16+ km)
Ceiling:5500 feet AGL
Clouds: few clouds at 4400 feet AGL, overcast cloud deck at 5500 feet AGL
QC Flag:automated observation with no human augmentation
Text:K6B9 240055Z AUTO 19017G32KT 160V230 10SM BKN050 BKN065 OVC100 06/03 A2973 RMK AO2
Temperature: 6.0°C ( 43°F)
Dewpoint: 3.0°C ( 37°F) [RH = 81%]
Pressure (altimeter):29.73 inches Hg (1006.9 mb)
Winds:from the S (190 degrees) at 20 MPH (17 knots; 8.7 m/s) gusting to 37 MPH (32 knots; 16.5 m/s)
Visibility:10 or more sm (16+ km)
Ceiling:5000 feet AGL
Clouds: broken clouds at 5000 feet AGL, broken clouds at 6500 feet AGL, overcast cloud deck at 10000 feet AGL
QC Flag:automated observation with no human augmentation
Text:K6B9 240035Z AUTO 18012G25KT 150V220 10SM BKN046 BKN055 OVC075 05/03 A2972 RMK AO2
Temperature: 5.0°C ( 41°F)
Dewpoint: 3.0°C ( 37°F) [RH = 87%]
Pressure (altimeter):29.72 inches Hg (1006.5 mb)
Winds:from the S (180 degrees) at 14 MPH (12 knots; 6.2 m/s) gusting to 29 MPH (25 knots; 12.9 m/s)
Visibility:10 or more sm (16+ km)
Ceiling:4600 feet AGL
Clouds: broken clouds at 4600 feet AGL, broken clouds at 5500 feet AGL, overcast cloud deck at 7500 feet AGL
QC Flag:automated observation with no human augmentation
Text:K6B9 240015Z AUTO 19012G22KT 160V220 10SM BKN048 OVC055 05/03 A2974 RMK AO2
Temperature: 5.0°C ( 41°F)
Dewpoint: 3.0°C ( 37°F) [RH = 87%]
Pressure (altimeter):29.74 inches Hg (1007.2 mb)
Winds:from the S (190 degrees) at 14 MPH (12 knots; 6.2 m/s) gusting to 25 MPH (22 knots; 11.3 m/s)
Visibility:10 or more sm (16+ km)
Ceiling:4800 feet AGL
Clouds: broken clouds at 4800 feet AGL, overcast cloud deck at 5500 feet AGL
QC Flag:automated observation with no human augmentation
Text:K6B9 232355Z AUTO 18012G21KT 160V220 10SM FEW047 BKN055 OVC070 05/03 A2975 RMK AO2
Temperature: 5.0°C ( 41°F)
Dewpoint: 3.0°C ( 37°F) [RH = 87%]
Pressure (altimeter):29.75 inches Hg (1007.5 mb)
Winds:from the S (180 degrees) at 14 MPH (12 knots; 6.2 m/s) gusting to 24 MPH (21 knots; 10.8 m/s)
Visibility:10 or more sm (16+ km)
Ceiling:5500 feet AGL
Clouds: few clouds at 4700 feet AGL, broken clouds at 5500 feet AGL, overcast cloud deck at 7000 feet AGL
QC Flag:automated observation with no human augmentation
Text:K6B9 232335Z AUTO 16011G23KT 130V200 10SM BKN050 OVC055 05/02 A2974 RMK AO2
Temperature: 5.0°C ( 41°F)
Dewpoint: 2.0°C ( 36°F) [RH = 81%]
Pressure (altimeter):29.74 inches Hg (1007.2 mb)
Winds:from the SSE (160 degrees) at 13 MPH (11 knots; 5.7 m/s) gusting to 26 MPH (23 knots; 11.8 m/s)
Visibility:10 or more sm (16+ km)
Ceiling:5000 feet AGL
Clouds: broken clouds at 5000 feet AGL, overcast cloud deck at 5500 feet AGL
QC Flag:automated observation with no human augmentation
Text:K6B9 232315Z AUTO 18010G20KT 150V230 10SM BKN049 OVC060 04/02 A2976 RMK AO2
Temperature: 4.0°C ( 39°F)
Dewpoint: 2.0°C ( 36°F) [RH = 87%]
Pressure (altimeter):29.76 inches Hg (1007.9 mb)
Winds:from the S (180 degrees) at 12 MPH (10 knots; 5.1 m/s) gusting to 23 MPH (20 knots; 10.3 m/s)
Visibility:10 or more sm (16+ km)
Ceiling:4900 feet AGL
Clouds: broken clouds at 4900 feet AGL, overcast cloud deck at 6000 feet AGL
QC Flag:automated observation with no human augmentation
Text:K6B9 232255Z AUTO 17012G20KT 10SM BKN050 OVC060 04/02 A2976 RMK AO2
Temperature: 4.0°C ( 39°F)
Dewpoint: 2.0°C ( 36°F) [RH = 87%]
Pressure (altimeter):29.76 inches Hg (1007.9 mb)
Winds:from the S (170 degrees) at 14 MPH (12 knots; 6.2 m/s) gusting to 23 MPH (20 knots; 10.3 m/s)
Visibility:10 or more sm (16+ km)
Ceiling:5000 feet AGL
Clouds: broken clouds at 5000 feet AGL, overcast cloud deck at 6000 feet AGL
QC Flag:automated observation with no human augmentation
Text:K6B9 232235Z AUTO 18011G22KT 150V220 10SM BKN050 OVC055 04/02 A2977 RMK AO2
Temperature: 4.0°C ( 39°F)
Dewpoint: 2.0°C ( 36°F) [RH = 87%]
Pressure (altimeter):29.77 inches Hg (1008.2 mb)
Winds:from the S (180 degrees) at 13 MPH (11 knots; 5.7 m/s) gusting to 25 MPH (22 knots; 11.3 m/s)
Visibility:10 or more sm (16+ km)
Ceiling:5000 feet AGL
Clouds: broken clouds at 5000 feet AGL, overcast cloud deck at 5500 feet AGL
QC Flag:automated observation with no human augmentation
Text:K6B9 232215Z AUTO 19014G24KT 10SM SCT050 BKN060 OVC070 04/02 A2977 RMK AO2
Temperature: 4.0°C ( 39°F)
Dewpoint: 2.0°C ( 36°F) [RH = 87%]
Pressure (altimeter):29.77 inches Hg (1008.2 mb)
Winds:from the S (190 degrees) at 16 MPH (14 knots; 7.2 m/s) gusting to 28 MPH (24 knots; 12.3 m/s)
Visibility:10 or more sm (16+ km)
Ceiling:6000 feet AGL
Clouds: scattered clouds at 5000 feet AGL, broken clouds at 6000 feet AGL, overcast cloud deck at 7000 feet AGL
QC Flag:automated observation with no human augmentation
Text:K6B9 232155Z AUTO 18013G24KT 160V220 10SM FEW048 FEW055 OVC070 04/02 A2977 RMK AO2 P0005
Temperature: 4.0°C ( 39°F)
Dewpoint: 2.0°C ( 36°F) [RH = 87%]
Pressure (altimeter):29.77 inches Hg (1008.2 mb)
Winds:from the S (180 degrees) at 15 MPH (13 knots; 6.7 m/s) gusting to 28 MPH (24 knots; 12.3 m/s)
Visibility:10 or more sm (16+ km)
Ceiling:7000 feet AGL
Clouds: few clouds at 4800 feet AGL, few clouds at 5500 feet AGL, overcast cloud deck at 7000 feet AGL
QC Flag:automated observation with no human augmentation
Text:K6B9 232135Z AUTO 19012G22KT 160V220 6SM -RA FEW048 OVC065 04/02 A2978 RMK AO2
Temperature: 4.0°C ( 39°F)
Dewpoint: 2.0°C ( 36°F) [RH = 87%]
Pressure (altimeter):29.78 inches Hg (1008.5 mb)
Winds:from the S (190 degrees) at 14 MPH (12 knots; 6.2 m/s) gusting to 25 MPH (22 knots; 11.3 m/s)
Visibility: 6 sm ( 10 km)
Ceiling:6500 feet AGL
Clouds: few clouds at 4800 feet AGL, overcast cloud deck at 6500 feet AGL
Weather:-RA (light rain)
QC Flag:automated observation with no human augmentation
Text:K6B9 232115Z AUTO 17013G29KT 140V230 4SM -RA FEW048 OVC060 04/02 A2979 RMK AO2
Temperature: 4.0°C ( 39°F)
Dewpoint: 2.0°C ( 36°F) [RH = 87%]
Pressure (altimeter):29.79 inches Hg (1008.9 mb)
Winds:from the S (170 degrees) at 15 MPH (13 knots; 6.7 m/s) gusting to 33 MPH (29 knots; 14.9 m/s)
Visibility: 4 sm ( 6 km)
Ceiling:6000 feet AGL
Clouds: few clouds at 4800 feet AGL, overcast cloud deck at 6000 feet AGL
Weather:-RA (light rain)
QC Flag:automated observation with no human augmentation
Text:K6B9 232055Z AUTO 18011G19KT 140V220 10SM FEW048 BKN055 BKN070 04/02 A2979 RMK AO2 P0006
Temperature: 4.0°C ( 39°F)
Dewpoint: 2.0°C ( 36°F) [RH = 87%]
Pressure (altimeter):29.79 inches Hg (1008.9 mb)
Winds:from the S (180 degrees) at 13 MPH (11 knots; 5.7 m/s) gusting to 22 MPH (19 knots; 9.8 m/s)
Visibility:10 or more sm (16+ km)
Ceiling:5500 feet AGL
Clouds: few clouds at 4800 feet AGL, broken clouds at 5500 feet AGL, broken clouds at 7000 feet AGL
QC Flag:automated observation with no human augmentation
Text:K6B9 232035Z AUTO 18013G22KT 130V210 10SM FEW055 SCT070 03/01 A2980 RMK AO2
Temperature: 3.0°C ( 37°F)
Dewpoint: 1.0°C ( 34°F) [RH = 87%]
Pressure (altimeter):29.80 inches Hg (1009.2 mb)
Winds:from the S (180 degrees) at 15 MPH (13 knots; 6.7 m/s) gusting to 25 MPH (22 knots; 11.3 m/s)
Visibility:10 or more sm (16+ km)
Ceiling:at least 12,000 feet AGL
Clouds: few clouds at 5500 feet AGL, scattered clouds at 7000 feet AGL
QC Flag:automated observation with no human augmentation
Text:K6B9 232015Z AUTO 18010G26KT 150V210 9SM -UP FEW044 SCT050 BKN065 03/01 A2981 RMK AO2
Temperature: 3.0°C ( 37°F)
Dewpoint: 1.0°C ( 34°F) [RH = 87%]
Pressure (altimeter):29.81 inches Hg (1009.6 mb)
Winds:from the S (180 degrees) at 12 MPH (10 knots; 5.1 m/s) gusting to 30 MPH (26 knots; 13.4 m/s)
Visibility: 9 sm ( 14 km)
Ceiling:6500 feet AGL
Clouds: few clouds at 4400 feet AGL, scattered clouds at 5000 feet AGL, broken clouds at 6500 feet AGL
Weather:UP (unknown precipitation)
QC Flag:automated observation with no human augmentation
Text:K6B9 231955Z AUTO 19012G21KT 10SM BKN049 OVC055 03/01 A2982 RMK AO2 P0004
Temperature: 3.0°C ( 37°F)
Dewpoint: 1.0°C ( 34°F) [RH = 87%]
Pressure (altimeter):29.82 inches Hg (1009.9 mb)
Winds:from the S (190 degrees) at 14 MPH (12 knots; 6.2 m/s) gusting to 24 MPH (21 knots; 10.8 m/s)
Visibility:10 or more sm (16+ km)
Ceiling:4900 feet AGL
Clouds: broken clouds at 4900 feet AGL, overcast cloud deck at 5500 feet AGL
QC Flag:automated observation with no human augmentation
Text:K6B9 231935Z AUTO 20009G19KT 10SM BKN044 OVC050 03/00 A2983 RMK AO2
Temperature: 3.0°C ( 37°F)
Dewpoint: 0.0°C ( 32°F) [RH = 81%]
Pressure (altimeter):29.83 inches Hg (1010.2 mb)
Winds:from the SSW (200 degrees) at 10 MPH (9 knots; 4.6 m/s) gusting to 22 MPH (19 knots; 9.8 m/s)
Visibility:10 or more sm (16+ km)
Ceiling:4400 feet AGL
Clouds: broken clouds at 4400 feet AGL, overcast cloud deck at 5000 feet AGL
QC Flag:automated observation with no human augmentation
Text:K6B9 231915Z AUTO 20010G18KT 9SM OVC046 02/M00 A2984 RMK AO2
Temperature: 2.0°C ( 36°F)
Dewpoint: 0.0°C ( 32°F) [RH = 87%]
Pressure (altimeter):29.84 inches Hg (1010.6 mb)
Winds:from the SSW (200 degrees) at 12 MPH (10 knots; 5.1 m/s) gusting to 21 MPH (18 knots; 9.3 m/s)
Visibility: 9 sm ( 14 km)
Ceiling:4600 feet AGL
Clouds: overcast cloud deck at 4600 feet AGL
QC Flag:automated observation with no human augmentation
Text:K6B9 231835Z AUTO 19012G18KT 160V220 6SM -RA FEW050 FEW060 01/M02 A2987 RMK AO2
Temperature: 1.0°C ( 34°F)
Dewpoint: -2.0°C ( 28°F) [RH = 80%]
Pressure (altimeter):29.87 inches Hg (1011.6 mb)
Winds:from the S (190 degrees) at 14 MPH (12 knots; 6.2 m/s) gusting to 21 MPH (18 knots; 9.3 m/s)
Visibility: 6 sm ( 10 km)
Ceiling:at least 12,000 feet AGL
Clouds: few clouds at 5000 feet AGL, few clouds at 6000 feet AGL
Weather:-RA (light rain)
QC Flag:automated observation with no human augmentation